Time;durP1;ratioP1;P1;durP2;ratioP2;P2;SDS_P1;SDS_P2;PMS_P1;PMS_P2;Temp;Humidity;BMP_temperature;BMP_pressure;BME280_temperature;BME280_humidity;BME280_pressure;Samples;Min_cycle;Max_cycle;Signal;HPM_P1;HPM_P2
2022/09/07 00:01:10;;;;;;;20.50;11.60;;;;;;;3.89;74.92;99626.98;104617;1274;63018;-24
2022/09/07 00:03:37;;;;;;;20.60;9.00;;;;;;;3.65;75.37;99624.60;104599;1277;76617;-24
2022/09/07 00:06:07;;;;;;;18.50;8.70;;;;;;;3.42;75.42;99618.70;104821;1274;77146;-24
2022/09/07 00:08:34;;;;;;;13.50;6.00;;;;;;;3.25;75.51;99619.77;104666;1274;75470;-24
2022/09/07 00:11:03;;;;;;;17.50;7.60;;;;;;;3.65;75.82;99618.42;104663;1277;62263;-24
2022/09/07 00:13:32;;;;;;;20.20;8.00;;;;;;;4.24;74.59;99617.15;104678;1274;62081;-24
2022/09/07 00:16:03;;;;;;;13.90;6.60;;;;;;;4.35;73.83;99617.53;104751;1274;75480;-24
2022/09/07 00:18:31;;;;;;;16.50;7.30;;;;;;;4.17;73.47;99615.76;104843;1271;75932;-24
2022/09/07 00:21:06;;;;;;;17.40;8.30;;;;;;;3.90;73.62;99614.40;105112;1271;75182;-24
2022/09/07 00:23:34;;;;;;;15.10;8.50;;;;;;;3.63;74.18;99614.71;104844;1271;61245;-26
2022/09/07 00:26:15;;;;;;;17.50;8.70;;;;;;;3.39;74.84;99611.28;104761;1274;62845;-25
2022/09/07 00:28:43;;;;;;;14.70;8.40;;;;;;;3.15;75.32;99609.19;104843;1274;76306;-25
2022/09/07 00:31:14;;;;;;;10.80;5.50;;;;;;;2.97;75.95;99603.74;105057;1272;76967;-25
2022/09/07 00:33:42;;;;;;;14.00;7.00;;;;;;;3.40;75.96;99604.02;105087;1274;75372;-25
2022/09/07 00:36:09;;;;;;;16.90;8.90;;;;;;;3.95;74.08;99603.52;104748;1274;62779;-25
2022/09/07 00:38:36;;;;;;;12.60;6.10;;;;;;;4.00;73.30;99607.59;104868;1273;61991;-25
2022/09/07 00:41:04;;;;;;;13.10;7.40;;;;;;;3.80;73.41;99609.86;104706;1272;76355;-25
2022/09/07 00:43:34;;;;;;;17.40;8.70;;;;;;;3.51;74.04;99608.00;104945;1274;77002;-25
2022/09/07 00:46:01;;;;;;;14.30;8.60;;;;;;;3.23;74.94;99608.17;104873;1271;75396;-25
2022/09/07 00:48:35;;;;;;;16.60;8.40;;;;;;;2.97;74.98;99607.02;104592;1274;62615;-25
2022/09/07 00:51:05;;;;;;;15.40;8.90;;;;;;;2.69;75.79;99607.12;104517;1274;63342;-25
2022/09/07 00:53:44;;;;;;;11.60;5.00;;;;;;;2.50;76.70;99609.04;104887;1271;77178;-25
2022/09/07 00:56:12;;;;;;;17.00;6.70;;;;;;;2.95;76.51;99607.74;104771;1271;75952;-25
2022/09/07 00:58:40;;;;;;;16.70;8.20;;;;;;;3.49;74.76;99605.52;104463;1274;74243;-25
2022/09/07 01:01:08;;;;;;;14.90;7.70;;;;;;;3.56;73.78;99602.48;104696;1272;61766;-25
2022/09/07 01:03:42;;;;;;;18.00;8.50;;;;;;;3.36;73.66;99607.44;104792;1271;62984;-25
2022/09/07 01:06:21;;;;;;;16.80;7.80;;;;;;;3.07;74.19;99599.23;104566;1274;76539;-25
2022/09/07 01:08:50;;;;;;;16.30;9.20;;;;;;;2.80;75.08;99596.88;104625;1274;75985;-25
2022/09/07 01:11:21;;;;;;;19.60;9.40;;;;;;;2.59;75.40;99600.30;104766;1274;75136;-26
2022/09/07 01:13:48;;;;;;;15.20;7.80;;;;;;;2.37;75.88;99598.39;104457;1274;61919;-25
2022/09/07 01:16:40;;;;;;;13.90;5.70;;;;;;;2.18;76.54;99594.68;104882;1274;63007;-25
2022/09/07 01:19:36;;;;;;;16.60;6.80;;;;;;;2.70;76.62;99593.16;105045;1274;76568;-25
2022/09/07 01:22:28;;;;;;;21.80;9.30;;;;;;;3.25;74.95;99590.56;104885;1274;76847;-25
2022/09/07 01:25:01;;;;;;;16.20;6.30;;;;;;;3.21;74.73;99586.98;105088;1274;74815;-25
2022/09/07 01:27:36;;;;;;;18.10;7.30;;;;;;;3.01;75.31;99586.79;104866;1274;62006;-25
2022/09/07 01:30:17;;;;;;;20.70;8.70;;;;;;;2.77;75.59;99586.20;104677;1274;61782;-25
2022/09/07 01:33:05;;;;;;;14.50;8.80;;;;;;;2.53;76.20;99588.53;104642;1274;75631;-25
2022/09/07 01:36:01;;;;;;;22.40;8.80;;;;;;;2.31;76.92;99585.61;104958;1274;76030;-25
2022/09/07 01:38:27;;;;;;;9.80;4.70;;;;;;;2.18;77.59;99582.88;105015;1274;74411;-25
2022/09/07 01:41:06;;;;;;;16.00;7.90;;;;;;;2.76;77.09;99579.55;105052;1274;61118;-25
2022/09/07 01:43:42;;;;;;;19.60;9.00;;;;;;;3.43;75.40;99581.40;105024;1274;62827;-25
2022/09/07 01:46:17;;;;;;;16.00;8.10;;;;;;;3.47;74.70;99579.02;104735;1274;76555;-24
2022/09/07 01:48:45;;;;;;;19.40;7.80;;;;;;;3.25;75.14;99574.77;104910;1274;77009;-25
2022/09/07 01:51:12;;;;;;;16.70;7.90;;;;;;;3.01;74.73;99572.20;104605;1274;74362;-25
2022/09/07 01:53:42;;;;;;;16.80;8.70;;;;;;;2.72;75.03;99566.86;104680;1273;61986;-25
2022/09/07 01:56:15;;;;;;;15.10;9.00;;;;;;;2.48;75.42;99565.59;104576;1274;63040;-25
2022/09/07 01:58:59;;;;;;;14.10;7.40;;;;;;;2.27;76.20;99563.66;104789;1272;76318;-25
2022/09/07 02:01:43;;;;;;;16.70;8.00;;;;;;;2.06;76.71;99561.57;104820;1274;75293;-25
2022/09/07 02:04:16;;;;;;;11.80;5.20;;;;;;;1.91;77.42;99561.77;104695;1274;73301;-25
2022/09/07 02:07:00;;;;;;;14.10;7.10;;;;;;;2.52;77.54;99559.91;104730;1274;62055;-25
2022/09/07 02:09:32;;;;;;;17.30;7.70;;;;;;;3.25;76.16;99562.27;105028;1274;63075;-25
2022/09/07 02:12:02;;;;;;;18.50;6.40;;;;;;;3.35;75.43;99563.56;104666;1274;76610;-26
2022/09/07 02:14:36;;;;;;;13.30;6.50;;;;;;;3.19;74.61;99562.52;104660;1274;77011;-25
2022/09/07 02:17:05;;;;;;;14.80;7.40;;;;;;;2.91;74.47;99560.06;104620;1274;75700;-25
2022/09/07 02:19:35;;;;;;;15.50;7.10;;;;;;;2.67;75.09;99556.27;105093;1272;62355;-25
2022/09/07 02:22:04;;;;;;;13.70;7.70;;;;;;;2.43;75.87;99558.76;104630;1274;62038;-25
2022/09/07 02:24:43;;;;;;;14.10;8.00;;;;;;;2.23;76.25;99558.15;104718;1274;76805;-25
2022/09/07 02:27:13;;;;;;;8.60;4.00;;;;;;;2.09;76.60;99554.91;104685;1274;76957;-25
2022/09/07 02:29:42;;;;;;;16.20;7.10;;;;;;;2.59;75.80;99554.33;104653;1274;75410;-25
2022/09/07 02:32:09;;;;;;;17.50;8.90;;;;;;;3.20;74.91;99549.94;104921;1274;63145;-24
2022/09/07 02:34:36;;;;;;;17.90;7.00;;;;;;;3.31;74.74;99548.11;105012;1274;63454;-25
2022/09/07 02:37:04;;;;;;;14.70;6.80;;;;;;;3.16;74.56;99548.06;104802;1274;76535;-24
2022/09/07 02:39:32;;;;;;;21.40;9.20;;;;;;;2.91;74.52;99546.00;104564;1274;77364;-24
2022/09/07 02:41:59;;;;;;;19.10;8.90;;;;;;;2.67;75.03;99543.41;104900;1274;74254;-24
2022/09/07 02:44:30;;;;;;;29.20;11.50;;;;;;;2.44;75.11;99541.08;104812;1274;62534;-24
2022/09/07 02:47:00;;;;;;;25.30;12.10;;;;;;;2.22;75.90;99539.85;104897;1274;61958;-24
2022/09/07 02:49:33;;;;;;;18.20;6.90;;;;;;;2.06;76.72;99541.34;105088;1274;76465;-24
2022/09/07 02:52:22;;;;;;;26.10;10.40;;;;;;;2.49;76.97;99541.17;104872;1274;77068;-24
2022/09/07 02:55:08;;;;;;;25.10;10.80;;;;;;;3.19;75.98;99540.38;105089;1274;75318;-24
2022/09/07 02:58:00;;;;;;;26.00;9.90;;;;;;;3.27;75.18;99540.38;104715;1274;63105;-25
2022/09/07 03:00:30;;;;;;;27.80;11.40;;;;;;;3.08;74.92;99536.06;105090;1274;63008;-24
2022/09/07 03:03:20;;;;;;;23.60;11.70;;;;;;;2.81;75.47;99536.63;104948;1274;75500;-24
2022/09/07 03:06:09;;;;;;;23.20;11.40;;;;;;;2.50;75.81;99533.64;104919;1272;76704;-24
2022/09/07 03:08:46;;;;;;;16.50;8.50;;;;;;;2.21;76.51;99536.84;104919;1271;75370;-25
2022/09/07 03:11:13;;;;;;;15.50;7.00;;;;;;;1.96;76.36;99535.70;104805;1271;61344;-23
2022/09/07 03:13:40;;;;;;;11.70;4.10;;;;;;;1.76;77.18;99531.33;104776;1271;62793;-25
2022/09/07 03:16:11;;;;;;;22.50;8.20;;;;;;;2.22;76.99;99531.81;104898;1273;76556;-25
2022/09/07 03:18:38;;;;;;;24.80;11.00;;;;;;;2.89;75.81;99529.66;104624;1272;75086;-25
2022/09/07 03:21:05;;;;;;;21.50;10.10;;;;;;;3.03;75.63;99530.78;104862;1271;75482;-25
2022/09/07 03:23:33;;;;;;;17.90;7.60;;;;;;;2.84;74.68;99534.12;105030;1273;63179;-25
2022/09/07 03:26:00;;;;;;;17.20;8.50;;;;;;;2.52;75.00;99530.28;104874;1274;62853;-25
2022/09/07 03:28:27;;;;;;;20.70;10.20;;;;;;;2.25;76.09;99532.91;104781;1271;75629;-25
2022/09/07 03:30:54;;;;;;;26.10;11.40;;;;;;;2.04;76.54;99535.92;105064;1271;76137;-25
2022/09/07 03:33:21;;;;;;;20.80;9.50;;;;;;;1.82;76.50;99534.67;105070;1271;74509;-25
2022/09/07 03:35:59;;;;;;;13.20;5.90;;;;;;;1.67;76.98;99533.58;104923;1274;61887;-24
2022/09/07 03:38:26;;;;;;;22.10;8.80;;;;;;;2.14;76.59;99532.63;104635;1274;63087;-25
2022/09/07 03:41:00;;;;;;;23.80;10.20;;;;;;;2.73;75.54;99529.25;104971;1271;74457;-25
2022/09/07 03:43:28;;;;;;;17.50;7.80;;;;;;;2.85;75.29;99527.92;104715;1274;75684;-25
2022/09/07 03:45:56;;;;;;;13.50;6.20;;;;;;;2.62;74.23;99529.38;104998;1274;75466;-25
2022/09/07 03:48:24;;;;;;;14.70;7.00;;;;;;;2.22;75.53;99528.92;104899;1274;61238;-25
2022/09/07 03:50:58;;;;;;;12.90;7.20;;;;;;;2.07;76.56;99529.81;104897;1271;63004;-25
2022/09/07 03:53:25;;;;;;;13.10;7.70;;;;;;;1.93;76.25;99532.09;104890;1272;75530;-24
2022/09/07 03:55:57;;;;;;;19.50;8.80;;;;;;;1.80;76.83;99536.50;104787;1271;75381;-25
2022/09/07 03:58:24;;;;;;;10.80;4.50;;;;;;;1.75;76.73;99535.65;104721;1271;75425;-24
2022/09/07 04:00:51;;;;;;;20.10;8.30;;;;;;;2.32;76.74;99531.77;105030;1271;61168;-24
2022/09/07 04:03:18;;;;;;;15.60;8.30;;;;;;;3.08;75.58;99534.52;104714;1271;61960;-24
2022/09/07 04:05:46;;;;;;;20.00;7.70;;;;;;;3.38;74.97;99536.84;105063;1271;76804;-24
2022/09/07 04:08:13;;;;;;;16.10;7.90;;;;;;;3.50;74.39;99533.91;104770;1271;76959;-24
2022/09/07 04:10:40;;;;;;;21.90;9.20;;;;;;;3.60;73.98;99529.52;105057;1271;75463;-24
2022/09/07 04:13:07;;;;;;;15.90;8.40;;;;;;;3.69;73.94;99528.41;104917;1274;62583;-24
2022/09/07 04:15:34;;;;;;;28.10;13.40;;;;;;;3.81;73.79;99527.38;105033;1271;61976;-24
2022/09/07 04:18:01;;;;;;;46.10;19.10;;;;;;;4.00;73.16;99523.77;104695;1274;75501;-24
2022/09/07 04:20:28;;;;;;;32.70;12.40;;;;;;;4.23;72.76;99522.52;104842;1272;77018;-24
2022/09/07 04:22:56;;;;;;;52.20;18.40;;;;;;;4.94;72.43;99526.80;104570;1274;75546;-24
2022/09/07 04:25:23;;;;;;;39.40;15.50;;;;;;;5.81;70.61;99529.19;104582;1274;61057;-24
2022/09/07 04:27:50;;;;;;;44.20;19.10;;;;;;;6.27;68.81;99527.56;104747;1271;61128;-24
2022/09/07 04:30:17;;;;;;;47.70;19.10;;;;;;;6.52;68.11;99524.64;105065;1274;76615;-24
2022/09/07 04:32:45;;;;;;;30.00;16.00;;;;;;;6.50;67.76;99523.20;104848;1271;75904;-24
2022/09/07 04:35:13;;;;;;;24.50;12.60;;;;;;;6.45;68.37;99523.14;104745;1274;75126;-24
2022/09/07 04:37:40;;;;;;;21.40;11.10;;;;;;;6.35;67.26;99524.90;104817;1271;62631;-25
2022/09/07 04:40:07;;;;;;;29.10;13.40;;;;;;;6.38;67.70;99521.81;104766;1271;61156;-24
2022/09/07 04:42:35;;;;;;;18.90;10.50;;;;;;;6.43;68.18;99520.48;104805;1272;75748;-24
2022/09/07 04:45:03;;;;;;;17.90;10.10;;;;;;;6.46;69.09;99524.13;104696;1274;77183;-24
2022/09/07 04:47:30;;;;;;;18.60;9.40;;;;;;;6.53;69.47;99525.45;104744;1271;75362;-24
2022/09/07 04:49:57;;;;;;;20.00;8.50;;;;;;;6.62;69.37;99519.94;104806;1272;61135;-24
2022/09/07 04:52:24;;;;;;;11.90;6.20;;;;;;;6.75;69.70;99520.41;104813;1271;61730;-25
2022/09/07 04:54:51;;;;;;;17.00;7.00;;;;;;;7.50;69.40;99526.34;104841;1271;75499;-24
2022/09/07 04:57:23;;;;;;;17.80;9.10;;;;;;;8.42;66.88;99522.86;104785;1271;77299;-25
2022/09/07 04:59:50;;;;;;;19.90;9.40;;;;;;;8.84;65.24;99517.91;104800;1271;75222;-24
2022/09/07 05:02:18;;;;;;;27.00;9.70;;;;;;;9.03;64.19;99518.56;104743;1271;62363;-24
2022/09/07 05:04:45;;;;;;;21.10;11.60;;;;;;;9.14;65.09;99516.23;104718;1274;61950;-24
2022/09/07 05:07:12;;;;;;;20.80;12.10;;;;;;;9.25;65.19;99515.32;104802;1274;77025;-24
2022/09/07 05:09:39;;;;;;;26.80;15.10;;;;;;;9.37;65.32;99521.41;104599;1274;74977;-24
2022/09/07 05:12:06;;;;;;;43.30;24.50;;;;;;;9.48;64.74;99519.16;104694;1274;75401;-25
2022/09/07 05:14:33;;;;;;;33.10;18.40;;;;;;;9.43;63.83;99523.63;105036;1271;62844;-24
2022/09/07 05:17:01;;;;;;;36.50;19.10;;;;;;;9.37;64.63;99525.08;104991;1272;61838;-24
2022/09/07 05:19:28;;;;;;;28.50;15.20;;;;;;;9.39;65.54;99526.38;104806;1271;75253;-25
2022/09/07 05:21:56;;;;;;;24.70;11.50;;;;;;;9.36;65.90;99526.52;103725;1274;1500689;-24
2022/09/07 05:24:23;;;;;;;28.30;9.60;;;;;;;9.33;65.78;99525.68;104839;1274;61145;-24
2022/09/07 05:26:50;;;;;;;21.50;9.00;;;;;;;9.33;66.08;99522.58;104888;1271;62020;-24
2022/09/07 05:29:17;;;;;;;17.00;9.10;;;;;;;9.35;65.99;99522.73;105065;1274;62060;-24
2022/09/07 05:32:04;;;;;;;25.00;9.40;;;;;;;9.34;65.15;99516.61;104955;1274;76583;-24
2022/09/07 05:34:31;;;;;;;27.30;9.70;;;;;;;9.28;65.44;99515.64;105101;1271;77505;-24
2022/09/07 05:36:59;;;;;;;19.60;9.20;;;;;;;9.22;65.69;99515.19;104561;1274;75594;-24
2022/09/07 05:39:26;;;;;;;16.00;8.40;;;;;;;9.17;65.97;99513.29;104607;1274;62839;-25
2022/09/07 05:41:54;;;;;;;16.30;8.00;;;;;;;9.19;65.84;99513.86;104694;1272;62806;-24
2022/09/07 05:44:21;;;;;;;16.60;7.90;;;;;;;9.19;65.74;99512.98;104583;1274;76657;-25
2022/09/07 05:47:09;;;;;;;11.90;5.10;;;;;;;9.29;66.35;99514.52;104974;1274;77160;-24
2022/09/07 05:49:36;;;;;;;12.90;5.90;;;;;;;10.06;65.64;99513.48;105063;1272;74637;-24
2022/09/07 05:52:03;;;;;;;15.80;7.00;;;;;;;10.91;63.63;99510.98;104748;1274;62420;-24
2022/09/07 05:54:30;;;;;;;18.50;7.40;;;;;;;11.20;62.53;99507.94;104628;1274;63026;-24
2022/09/07 05:56:57;;;;;;;15.60;7.10;;;;;;;11.18;62.10;99508.65;104795;1271;76556;-25
2022/09/07 05:59:24;;;;;;;12.80;6.80;;;;;;;11.12;61.77;99509.40;104752;1271;77407;-25
2022/09/07 06:01:51;;;;;;;11.60;6.10;;;;;;;11.05;62.01;99513.59;104859;1271;75227;-25
2022/09/07 06:04:18;;;;;;;14.30;7.50;;;;;;;10.83;61.40;99510.23;104963;1274;63031;-25
2022/09/07 06:06:45;;;;;;;16.90;7.30;;;;;;;10.63;62.55;99514.50;105104;1271;62021;-24
2022/09/07 06:09:33;;;;;;;14.10;7.30;;;;;;;10.49;63.06;99512.21;105094;1271;75509;-25
2022/09/07 06:12:04;;;;;;;12.50;6.70;;;;;;;10.49;63.01;99514.11;104703;1274;76006;-24
2022/09/07 06:14:32;;;;;;;17.40;7.00;;;;;;;10.52;62.69;99509.86;104759;1271;75471;-24
2022/09/07 06:16:59;;;;;;;15.70;7.00;;;;;;;10.52;62.98;99507.25;104532;1273;62148;-25
2022/09/07 06:19:26;;;;;;;20.00;7.50;;;;;;;10.52;61.99;99505.05;104776;1271;62010;-25
2022/09/07 06:21:53;;;;;;;15.20;6.80;;;;;;;10.42;62.63;99506.44;104947;1271;76539;-24
2022/09/07 06:24:20;;;;;;;15.40;7.30;;;;;;;10.47;62.51;99507.83;104910;1271;77596;-25
2022/09/07 06:26:47;;;;;;;10.30;5.50;;;;;;;10.52;62.43;99507.43;104897;1271;75414;-25
2022/09/07 06:29:14;;;;;;;14.40;6.50;;;;;;;10.55;61.58;99516.82;104695;1274;61140;-24
2022/09/07 06:31:41;;;;;;;13.30;6.00;;;;;;;10.57;60.64;99516.80;104770;1271;62863;-24
2022/09/07 06:34:28;;;;;;;12.30;5.40;;;;;;;10.72;60.98;99520.04;104782;1271;76560;-25
2022/09/07 06:36:55;;;;;;;12.70;5.50;;;;;;;10.93;60.78;99523.02;104758;1271;76994;-24
2022/09/07 06:39:22;;;;;;;12.80;6.60;;;;;;;11.01;57.75;99524.30;105049;1272;75392;-24
2022/09/07 06:41:49;;;;;;;15.30;6.90;;;;;;;10.98;58.36;99524.03;104975;1273;61710;-24
2022/09/07 06:44:27;;;;;;;13.10;7.10;;;;;;;11.15;59.68;99522.41;104635;1275;61846;-24
2022/09/07 06:46:54;;;;;;;13.00;6.80;;;;;;;11.29;59.50;99519.58;104943;1271;75484;-24
2022/09/07 06:49:29;;;;;;;12.30;7.10;;;;;;;11.49;58.47;99524.69;104977;1272;75688;-24
2022/09/07 06:51:56;;;;;;;9.10;5.20;;;;;;;11.47;55.66;99529.17;105078;1271;73536;-24
2022/09/07 06:54:23;;;;;;;13.60;6.50;;;;;;;11.57;56.17;99530.11;105051;1274;62769;-24
2022/09/07 06:57:10;;;;;;;7.90;4.70;;;;;;;11.85;56.69;99531.27;105056;1274;63291;-24
2022/09/07 06:59:38;;;;;;;11.80;4.50;;;;;;;12.11;54.96;99531.68;104841;1274;76560;-24
2022/09/07 07:02:05;;;;;;;9.10;4.40;;;;;;;12.39;54.67;99523.57;104749;1271;77048;-25
2022/09/07 07:04:32;;;;;;;7.00;3.40;;;;;;;12.61;53.95;99520.20;104974;1271;75302;-24
2022/09/07 07:07:05;;;;;;;6.80;4.30;;;;;;;12.75;51.10;99520.55;104826;1271;61360;-24
2022/09/07 07:09:32;;;;;;;8.70;3.30;;;;;;;12.89;52.76;99516.19;104648;1275;63060;-24
2022/09/07 07:11:59;;;;;;;6.20;3.90;;;;;;;13.18;52.60;99516.37;105090;1271;76734;-25
2022/09/07 07:14:26;;;;;;;12.80;4.40;;;;;;;13.18;49.60;99512.30;104993;1274;76742;-25
2022/09/07 07:16:56;;;;;;;11.20;3.60;;;;;;;13.33;52.39;99513.70;104819;1271;75441;-25
2022/09/07 07:19:23;;;;;;;4.30;3.10;;;;;;;13.61;51.94;99512.20;104994;1271;62013;-25
2022/09/07 07:21:50;;;;;;;7.00;3.30;;;;;;;13.84;51.76;99512.86;104854;1274;62775;-25
2022/09/07 07:24:37;;;;;;;5.80;3.70;;;;;;;14.04;49.76;99515.41;104688;1271;76779;-25
2022/09/07 07:27:05;;;;;;;7.70;3.00;;;;;;;14.19;49.33;99519.05;104719;1274;77025;-25
2022/09/07 07:29:32;;;;;;;6.70;3.30;;;;;;;14.19;47.69;99519.70;104684;1274;75538;-25
2022/09/07 07:32:00;;;;;;;4.60;2.80;;;;;;;14.25;48.60;99520.24;104723;1271;62011;-25
2022/09/07 07:34:27;;;;;;;10.40;5.00;;;;;;;14.42;47.60;99523.05;104628;1274;61150;-24
2022/09/07 07:36:55;;;;;;;5.40;2.90;;;;;;;14.35;46.68;99519.02;105094;1271;75449;-25
2022/09/07 07:39:22;;;;;;;9.20;3.00;;;;;;;14.40;47.63;99521.17;105066;1274;77031;-25
2022/09/07 07:42:09;;;;;;;6.80;2.80;;;;;;;14.54;46.72;99522.06;104726;1274;75228;-25
2022/09/07 07:44:35;;;;;;;5.20;3.10;;;;;;;14.58;46.86;99522.73;105034;1272;63055;-24
2022/09/07 07:47:02;;;;;;;6.70;2.50;;;;;;;14.76;47.13;99519.52;105072;1273;63383;-25
2022/09/07 07:49:30;;;;;;;4.80;2.80;;;;;;;14.96;46.44;99518.95;105020;1274;75429;-25
2022/09/07 07:51:57;;;;;;;5.10;2.50;;;;;;;15.01;43.18;99519.48;104792;1272;77047;-24
2022/09/07 07:54:44;;;;;;;4.10;2.40;;;;;;;15.03;44.97;99518.45;104731;1274;75402;-25
2022/09/07 07:57:11;;;;;;;5.10;2.60;;;;;;;15.30;43.69;99517.90;104918;1272;61700;-25
2022/09/07 07:59:38;;;;;;;7.40;2.70;;;;;;;15.53;41.85;99515.70;104875;1271;63306;-25
2022/09/07 08:02:07;;;;;;;6.80;2.80;;;;;;;15.64;40.56;99513.64;105113;1271;76936;-25
2022/09/07 08:04:35;;;;;;;7.00;2.60;;;;;;;15.83;40.46;99511.38;104678;1275;77299;-24
2022/09/07 08:07:02;;;;;;;3.40;2.00;;;;;;;16.06;39.00;99505.52;104710;1274;75545;-24
2022/09/07 08:09:40;;;;;;;7.10;3.00;;;;;;;15.81;37.11;99500.91;104897;1274;61968;-23
2022/09/07 08:12:08;;;;;;;4.90;2.30;;;;;;;15.71;38.70;99502.31;105041;1274;61666;-24
2022/09/07 08:14:39;;;;;;;4.30;2.40;;;;;;;15.82;39.59;99503.62;104721;1275;75766;-23
2022/09/07 08:17:12;;;;;;;3.90;2.40;;;;;;;16.09;39.79;99502.19;104647;1274;75896;-23
2022/09/07 08:19:39;;;;;;;8.40;3.40;;;;;;;16.30;37.36;99496.56;104590;1275;74393;-23
2022/09/07 08:22:07;;;;;;;12.40;2.70;;;;;;;16.48;38.00;99492.63;104758;1274;61658;-24
2022/09/07 08:24:34;;;;;;;7.30;2.50;;;;;;;16.76;37.68;99487.09;104721;1275;63038;-24
2022/09/07 08:27:01;;;;;;;4.10;2.40;;;;;;;17.00;36.27;99488.56;104871;1274;75552;-24
2022/09/07 08:29:29;;;;;;;5.40;2.20;;;;;;;17.16;37.05;99484.02;105063;1274;77375;-24
2022/09/07 08:32:03;;;;;;;3.40;2.10;;;;;;;17.07;37.46;99483.33;104809;1274;75648;-23
2022/09/07 08:35:21;;;;;;;4.20;1.90;;;;;;;17.29;38.06;99474.63;104230;1280;61826;-24
2022/09/07 08:37:48;;;;;;;4.20;2.30;;;;;;;17.40;35.75;99469.48;104447;1278;63136;-24
2022/09/07 08:40:16;;;;;;;4.00;2.40;;;;;;;17.51;37.07;99474.08;104528;1280;76850;-24
2022/09/07 08:43:22;;;;;;;4.70;2.70;;;;;;;17.55;36.82;99466.27;104615;1279;77105;-24
2022/09/07 08:45:52;;;;;;;4.60;2.30;;;;;;;17.67;36.84;99464.35;104124;1286;75288;-23
2022/09/07 08:48:27;;;;;;;5.50;2.50;;;;;;;17.71;35.64;99461.29;103949;1283;61931;-23
2022/09/07 08:51:19;;;;;;;3.70;2.50;;;;;;;17.55;34.45;99459.42;104076;1280;61246;-24
2022/09/07 08:53:50;;;;;;;4.80;2.60;;;;;;;17.17;35.56;99453.37;104008;1278;76640;-25
2022/09/07 08:56:30;;;;;;;4.30;1.90;;;;;;;17.13;35.99;99455.38;104323;1278;76085;-25
2022/09/07 08:59:02;;;;;;;3.90;2.30;;;;;;;17.47;35.08;99453.64;104379;1280;75253;-24
2022/09/07 09:01:38;;;;;;;6.60;2.20;;;;;;;17.81;34.94;99450.05;104254;1280;63073;-23
2022/09/07 09:04:13;;;;;;;4.10;2.00;;;;;;;18.24;35.25;99447.47;104502;1281;61032;-25
2022/09/07 09:07:24;;;;;;;5.40;1.80;;;;;;;18.62;34.50;99439.05;104515;1280;76349;-23
2022/09/07 09:10:03;;;;;;;4.50;1.90;;;;;;;18.80;32.47;99435.29;104099;1285;74992;-22
2022/09/07 09:12:39;;;;;;;4.90;2.00;;;;;;;18.73;33.07;99434.80;104106;1281;74711;-23
2022/09/07 09:15:22;;;;;;;10.00;2.50;;;;;;;18.90;33.86;99434.17;104179;1283;63082;-24
2022/09/07 09:18:24;;;;;;;4.70;2.30;;;;;;;19.67;33.88;99428.89;104234;1281;61053;-23
2022/09/07 09:20:53;;;;;;;7.50;2.00;;;;;;;19.86;31.28;99422.69;103669;1284;76612;-24
2022/09/07 09:23:40;;;;;;;4.20;1.90;;;;;;;20.34;33.36;99421.54;103942;1282;77037;-23
2022/09/07 09:26:17;;;;;;;5.00;1.90;;;;;;;20.94;30.85;99415.61;103888;1282;72969;-24
2022/09/07 09:28:44;;;;;;;7.10;2.00;;;;;;;21.02;30.18;99411.92;104030;1281;61770;-23
2022/09/07 09:31:21;;;;;;;3.10;2.20;;;;;;;21.12;29.84;99409.23;104380;1281;61956;-23
2022/09/07 09:34:06;;;;;;;3.50;1.50;;;;;;;21.29;30.82;99410.45;103880;1284;76931;-23
2022/09/07 09:36:39;;;;;;;4.00;2.00;;;;;;;20.95;29.98;99405.45;104115;1281;76730;-23
2022/09/07 09:39:29;;;;;;;7.30;2.50;;;;;;;21.11;31.03;99409.91;103955;1281;75124;-23
2022/09/07 09:42:12;;;;;;;4.30;2.30;;;;;;;21.71;29.71;99404.33;104480;1280;63413;-23
2022/09/07 09:44:39;;;;;;;5.80;2.30;;;;;;;21.70;28.70;99400.86;104473;1274;62009;-23
2022/09/07 09:47:16;;;;;;;3.80;2.40;;;;;;;21.79;28.88;99396.92;104895;1274;76568;-23
2022/09/07 09:50:15;;;;;;;5.40;2.10;;;;;;;21.53;28.90;99388.42;104891;1274;75906;-23
2022/09/07 09:53:03;;;;;;;4.90;2.10;;;;;;;21.58;28.20;99388.20;104730;1274;73169;-23
2022/09/07 09:55:36;;;;;;;3.40;1.80;;;;;;;21.53;28.47;99393.02;104638;1274;61854;-23
2022/09/07 09:58:05;;;;;;;5.00;2.00;;;;;;;21.76;28.92;99393.14;104388;1277;62786;-23
2022/09/07 10:00:57;;;;;;;3.30;1.90;;;;;;;21.87;27.84;99392.91;104558;1274;75263;-24
2022/09/07 10:03:44;;;;;;;3.40;1.90;;;;;;;22.12;27.76;99385.48;104804;1274;77013;-23
2022/09/07 10:06:31;;;;;;;3.40;2.00;;;;;;;22.31;27.72;99383.80;105033;1273;74460;-24
2022/09/07 10:09:01;;;;;;;2.20;1.60;;;;;;;22.53;28.73;99382.15;105059;1274;62140;-24
2022/09/07 10:11:46;;;;;;;4.20;2.00;;;;;;;22.41;28.04;99379.05;104995;1274;62816;-24
2022/09/07 10:14:34;;;;;;;2.90;1.40;;;;;;;22.19;28.09;99378.64;104781;1275;76659;-23
2022/09/07 10:17:29;;;;;;;2.30;1.50;;;;;;;22.15;27.93;99376.05;105077;1273;76968;-23
2022/09/07 10:20:00;;;;;;;2.50;1.50;;;;;;;22.56;28.87;99375.02;104742;1274;75380;-23
2022/09/07 10:22:35;;;;;;;5.10;2.00;;;;;;;22.79;27.09;99372.41;105053;1274;63023;-24
2022/09/07 10:25:04;;;;;;;3.10;1.70;;;;;;;23.08;27.17;99368.77;104623;1274;63035;-23
2022/09/07 10:27:33;;;;;;;2.90;1.60;;;;;;;23.21;26.59;99370.90;104699;1274;76687;-25
2022/09/07 10:30:01;;;;;;;2.50;1.40;;;;;;;23.23;27.77;99366.58;104580;1274;76986;-23
2022/09/07 10:32:56;;;;;;;3.60;2.10;;;;;;;22.52;27.10;99363.70;104663;1274;74036;-23
2022/09/07 10:35:34;;;;;;;3.30;2.00;;;;;;;22.44;28.55;99360.58;105088;1274;62072;-24
2022/09/07 10:38:00;;;;;;;3.00;1.80;;;;;;;22.56;27.19;99357.39;105062;1274;62028;-24
2022/09/07 10:40:29;;;;;;;5.40;2.20;;;;;;;21.93;27.79;99356.52;105009;1274;76621;-24
2022/09/07 10:43:15;;;;;;;2.50;1.60;;;;;;;22.21;28.50;99352.01;104825;1273;77029;-23
2022/09/07 10:46:08;;;;;;;2.50;2.00;;;;;;;22.94;27.33;99341.64;105006;1274;74386;-23
2022/09/07 10:48:55;;;;;;;2.50;1.70;;;;;;;23.37;26.65;99341.48;105087;1274;62001;-24
2022/09/07 10:51:34;;;;;;;2.50;1.60;;;;;;;23.38;25.99;99333.27;104729;1274;63120;-23
2022/09/07 10:54:24;;;;;;;3.50;1.30;;;;;;;23.78;26.66;99330.44;105027;1274;76583;-23
2022/09/07 10:57:31;;;;;;;6.20;2.00;;;;;;;23.29;25.63;99328.01;104686;1275;75870;-23
2022/09/07 11:00:03;;;;;;;3.30;1.70;;;;;;;22.61;26.72;99316.80;104791;1274;75452;-23
2022/09/07 11:03:11;;;;;;;3.40;1.70;;;;;;;23.14;26.47;99318.98;104717;1275;62787;-23
2022/09/07 11:06:18;;;;;;;4.40;1.50;;;;;;;23.24;24.61;99316.97;104705;1274;61961;-24
2022/09/07 11:09:00;;;;;;;4.30;1.60;;;;;;;23.63;26.45;99315.59;104880;1271;76558;-23
2022/09/07 11:11:48;;;;;;;3.90;1.90;;;;;;;24.09;25.56;99308.14;104851;1271;76561;-23
2022/09/07 11:14:38;;;;;;;2.60;1.70;;;;;;;23.79;25.96;99309.25;104802;1275;73637;-23
2022/09/07 11:17:20;;;;;;;13.40;2.20;;;;;;;23.74;25.18;99305.69;105120;1271;62184;-22
2022/09/07 11:20:09;;;;;;;8.20;1.70;;;;;;;23.43;24.49;99306.64;104737;1272;63034;-23
2022/09/07 11:22:52;;;;;;;3.10;1.70;;;;;;;23.51;24.08;99295.43;104595;1276;76322;-24
2022/09/07 11:25:22;;;;;;;5.60;1.60;;;;;;;23.70;24.57;99289.75;105014;1271;76750;-22
2022/09/07 11:28:21;;;;;;;2.60;1.80;;;;;;;23.94;25.56;99284.79;104790;1271;74063;-26
2022/09/07 11:30:50;;;;;;;3.00;1.70;;;;;;;24.20;25.30;99287.74;104952;1271;62780;-24
2022/09/07 11:33:30;;;;;;;5.50;1.80;;;;;;;24.38;25.26;99281.74;104915;1274;61103;-22
2022/09/07 11:36:01;;;;;;;3.00;1.60;;;;;;;24.32;24.01;99277.34;104883;1271;76595;-23
2022/09/07 11:38:50;;;;;;;4.10;1.60;;;;;;;23.81;24.83;99275.30;105049;1271;77243;-23
2022/09/07 11:41:20;;;;;;;2.50;1.60;;;;;;;23.25;26.64;99281.60;104673;1271;75365;-23
2022/09/07 11:44:00;;;;;;;4.70;1.50;;;;;;;23.11;26.25;99276.56;104594;1271;63134;-24
2022/09/07 11:46:42;;;;;;;2.40;1.40;;;;;;;22.92;26.09;99270.80;104961;1271;63013;-23
2022/09/07 11:49:24;;;;;;;3.50;1.60;;;;;;;22.53;26.99;99269.45;104634;1274;76520;-23
2022/09/07 11:51:54;;;;;;;6.90;1.70;;;;;;;22.03;26.32;99263.80;104646;1271;77085;-24
2022/09/07 11:54:50;;;;;;;3.30;1.90;;;;;;;22.16;26.81;99261.98;104840;1271;74049;-23